Historyczne dane pomiarowe

Dodano dane terminowe – wersja testowa.

Dane z okresu 1951-2019

Wersja bazy: 1.34 [2019-03-16, lista zmian], aktualizacja planowana na 2019-04-15

Dane meteo z obszaru Polski uzyskane na podstawie danych udostępnionych przez Instytut Meteorologii i Gospodarki Wodnej – Państwowy Instytut Badawczy.

 

Wybierz Datę:    

       

TemperaturaWilgotnośćWiatrCiśnienieOpadyŚniegCzas trwania zjawisk
 Stacja t tx tn tng RH VA  wxwx mslp ppp RRR   cm mm wxwxwxwxwxwxwx
1956-11-09 0.6 2.3 -0.7 -0.4 69.0- 6.0 3.3---- 0.0------------
1956-11-08 2.0 4.1 0.7 -1.5 90.8- 7.7 3.3---- 0.3------------
1956-11-07 1.9 4.2 0.1 0.1 73.8- 6.0 5.3---- 3.1------------
1956-11-06 3.6 5.4 2.0 0.9 60.5- 4.7 8.7---- 0.1------------
1956-11-05 6.2 8.8 3.0 3.1 68.8- 6.0 10.3---- 1.4------------
1956-11-04 3.8 5.4 1.7 0.4 81.5- 8.0 6.3---- 1.2------------
1956-11-03 3.5 5.3 1.2 -1.5 78.8- 3.7 4.0---- 0.0------------
1956-11-02 3.4 6.3 0.6 -2.9 68.0- 2.0 2.7---- 6.3------------
1956-11-01 5.2 6.6 2.0 1.0 94.5- 8.0 9.0---- 4.4------------
1956-10-31 1.4 2.7 -3.0 -5.2 76.0- 4.7 5.0---- 0.0------------
1956-10-30 -0.3 0.8 -1.4 -0.4 85.5- 5.7 8.7---- 0.4------------
1956-10-29 1.4 6.1 -0.1 2.9 97.0- 8.0 12.7---- 5.5------------
1956-10-28 7.0 8.2 5.4 7.3 94.3- 8.0 10.0---- 2.7------------
1956-10-27 8.2 10.1 5.0 2.5 92.3- 8.0 9.3---- 15.8------------
1956-10-26 7.5 10.2 4.9 3.8 88.3- 6.3 1.7---- 0.0------------
1956-10-25 11.5 14.9 9.4 10.5 86.0- 5.0 5.3---- 0.2------------
1956-10-24 12.0 13.1 10.1 8.5 92.5- 7.3 4.7---- 0.3------------
1956-10-23 11.4 12.3 9.4 10.9 79.0- 8.0 6.3---- 0.0------------
1956-10-22 12.5 14.1 11.3 11.3 78.0- 6.7 6.3---- 0.0------------
1956-10-21 12.7 14.0 8.4 5.7 87.8- 7.7 5.3---- 0.0------------
1956-10-20 10.4 11.4 8.5 6.5 94.5- 6.3 3.7---- 2.1------------
1956-10-19 10.6 12.3 9.1 7.5 89.5- 6.3 6.7---- 0.3------------
1956-10-18 11.5 12.6 8.0 7.1 93.8- 8.0 4.7---- 2.6------------
1956-10-17 9.9 13.8 2.1 -0.3 79.0- 2.0 5.3---- 0.3------------
1956-10-16 6.9 11.9 3.1 0.4 90.5- 4.3 1.7---- 0.0------------
1956-10-15 6.9 11.5 4.0 0.1 89.0- 1.3 3.7---- 0.0------------
1956-10-14 9.3 10.4 6.5 4.8 68.5- 0.7 8.0---- 0.0------------
1956-10-13 10.8 12.1 9.7 8.6 85.0- 7.7 13.3---- 13.1------------
1956-10-12 11.6 12.9 10.4 9.2 84.5- 7.7 8.7---- 0.3------------
1956-10-11 11.9 13.5 8.4 7.8 85.0- 6.3 8.0---- 0.0------------
1956-10-10 8.7 10.9 2.5 -1.5 75.3- 6.0 5.7---- 0.0------------
1956-10-09 8.4 11.0 6.2 5.5 72.3- 5.0 7.3---- 0.7------------
1956-10-08 7.7 9.8 5.3 4.0 75.8- 6.3 4.7---- 1.9------------
1956-10-07 8.6 10.3 6.2 7.5 78.5- 5.3 10.3---- 4.1------------
1956-10-06 8.8 10.5 6.7 4.9 88.3- 7.0 3.3---- 0.1------------
1956-10-05 9.4 11.8 7.9 7.6 84.8- 5.3 5.7---- 0.0------------
1956-10-04 11.0 14.5 8.3 5.9 91.3- 4.3 4.7---- 1.1------------
1956-10-03 12.4 14.7 10.4 10.3 92.5- 5.3 4.0---- 5.4------------
1956-10-02 14.1 19.1 11.4 8.2 92.0- 6.3 3.3---- 27.0------------
1956-10-01 14.0 15.6 9.9 6.3 89.3- 6.0 4.3---- 7.8------------
1956-09-30 14.2 18.8 11.4 10.0 81.5- 0.7 4.7---- 0.0------------
1956-09-29 14.9 17.7 12.9 12.0 77.8- 1.7 8.7---- 0.0------------
1956-09-28 16.1 18.2 14.2 12.4 83.8- 6.7 5.0---- 0.4------------
1956-09-27 16.1 19.7 11.4 8.4 80.8- 1.3 3.3---- 0.0------------
1956-09-26 15.1 20.2 10.3 6.0 83.3- 0.0 3.3---- 0.0------------
1956-09-25 12.7 17.1 7.0 5.1 73.0- 0.0 4.7---- 0.0------------
1956-09-24 12.2 15.5 8.9 5.7 62.3- 0.3 5.0---- 0.0------------
1956-09-23 12.0 15.3 8.8 5.5 72.5- 2.7 4.7---- 0.0------------
1956-09-22 13.2 17.0 5.1 2.5 93.5- 1.3 3.3---- 0.0------------
1956-09-21 10.7 17.7 3.0 0.7 86.5- 0.3 0.3---- 0.0------------
1956-09-20 9.3 14.9 5.3 6.9 89.3- 4.7 1.0---- 0.0------------
1956-09-19 12.5 15.8 4.5 4.0 77.5- 2.7 2.3---- 0.0------------
1956-09-18 10.0 14.8 7.2 6.6 85.3- 2.0 2.7---- 0.0------------
1956-09-17 10.5 13.9 5.7 4.0 80.0- 4.3 6.0---- 5.3------------
1956-09-16 11.7 14.7 10.0 8.0 74.3- 6.0 7.7---- 4.8------------
1956-09-15 13.1 16.0 8.8 6.6 76.0- 2.0 7.3---- 0.0------------
1956-09-14 11.1 16.8 6.5 3.3 89.8- 1.3 1.0---- 1.4------------
1956-09-13 10.7 13.6 9.1 8.2 83.8- 2.3 2.7---- 0.4------------
1956-09-12 12.9 16.2 10.7 12.0 81.5- 3.7 8.3---- 0.6------------
1956-09-11 14.5 16.7 13.0 10.0 89.3- 4.3 1.3---- 11.3------------
195.3 ms

 

Źródłem pochodzenia danych jest Instytut Meteorologii i Gospodarki Wodnej – Państwowy Instytut Badawczy. Dane Instytutu Meteorologii i Gospodarki Wodnej – Państwowego Instytutu Badawczego zostały przetworzone.

Dane źródłowe można odnaleźć na stronie https://dane.imgw.pl